Time;durP1;ratioP1;P1;durP2;ratioP2;P2;SDS_P1;SDS_P2;PMS_P1;PMS_P2;Temp;Humidity;BMP_temperature;BMP_pressure;BME280_temperature;BME280_humidity;BME280_pressure;Samples;Min_cycle;Max_cycle;Signal;HPM_P1;HPM_P2
2023/08/08 00:00:09;;;;;;;;;;;16.20;99.90;;;;;;5042602;28;19965;-92
2023/08/08 00:02:46;;;;;;;;;;;16.20;99.90;;;;;;5031613;28;19955;-93
2023/08/08 00:05:16;;;;;;;;;;;16.10;99.90;;;;;;5003400;28;19954;-94
2023/08/08 00:07:42;;;;;;;;;;;16.10;99.90;;;;;;5002962;28;19967;-92
2023/08/08 00:10:10;;;;;;;;;;;16.00;99.90;;;;;;5018315;28;19909;-93
2023/08/08 00:12:39;;;;;;;;;;;16.00;99.90;;;;;;5018107;28;20422;-92
2023/08/08 00:15:09;;;;;;;;;;;16.00;99.90;;;;;;5002350;28;20055;-93
2023/08/08 00:17:40;;;;;;;;;;;16.00;99.90;;;;;;5002942;28;20369;-92
2023/08/08 00:20:07;;;;;;;;;;;16.00;99.90;;;;;;5002786;28;19920;-94
2023/08/08 00:22:49;;;;;;;;;;;15.90;99.90;;;;;;5017618;28;19910;-93
2023/08/08 00:28:08;;;;;;;;;;;15.90;99.90;;;;;;5021478;28;19920;-93
2023/08/08 00:30:34;;;;;;;;;;;15.90;99.90;;;;;;5017966;28;20333;-93
2023/08/08 00:33:00;;;;;;;;;;;15.90;99.90;;;;;;5018415;28;19999;-92
2023/08/08 00:35:29;;;;;;;;;;;15.90;99.90;;;;;;5018202;28;19963;-92
2023/08/08 00:37:54;;;;;;;;;;;15.90;99.90;;;;;;5017731;28;19909;-91
2023/08/08 00:40:20;;;;;;;;;;;15.90;99.90;;;;;;5018062;28;19960;-91
2023/08/08 00:42:46;;;;;;;;;;;15.90;99.90;;;;;;5018225;28;20001;-91
2023/08/08 00:45:17;;;;;;;;;;;15.90;99.90;;;;;;5018028;28;19910;-91
2023/08/08 00:47:54;;;;;;;;;;;15.80;99.90;;;;;;5018317;28;20216;-92
2023/08/08 00:50:23;;;;;;;;;;;15.80;99.90;;;;;;5001902;28;20420;-91
2023/08/08 00:52:57;;;;;;;;;;;15.80;99.90;;;;;;5018576;28;19959;-93
2023/08/08 00:55:25;;;;;;;;;;;15.80;99.90;;;;;;5017667;28;20350;-93
2023/08/08 00:57:54;;;;;;;;;;;15.80;99.90;;;;;;5019097;28;20402;-94
2023/08/08 01:00:20;;;;;;;;;;;15.80;99.90;;;;;;5007858;28;19913;-93
2023/08/08 01:02:59;;;;;;;;;;;15.80;99.90;;;;;;5001199;28;19920;-93
2023/08/08 01:05:35;;;;;;;;;;;15.80;99.90;;;;;;5002638;28;19921;-92
2023/08/08 01:08:04;;;;;;;;;;;15.80;99.90;;;;;;5017945;28;19957;-92
2023/08/08 01:10:37;;;;;;;;;;;15.80;99.90;;;;;;5017425;28;19948;-92
2023/08/08 01:13:06;;;;;;;;;;;15.80;99.90;;;;;;5017437;28;19909;-92
2023/08/08 01:15:35;;;;;;;;;;;15.80;99.90;;;;;;5017417;28;19973;-92
2023/08/08 01:21:11;;;;;;;;;;;15.80;99.90;;;;;;5035192;28;19932;-92
2023/08/08 01:24:01;;;;;;;;;;;15.90;99.90;;;;;;5000863;28;20370;-92
2023/08/08 01:26:43;;;;;;;;;;;15.90;99.90;;;;;;5017565;28;20377;-93
2023/08/08 01:29:15;;;;;;;;;;;15.80;99.90;;;;;;5016519;28;20007;-92
2023/08/08 01:31:41;;;;;;;;;;;15.80;99.90;;;;;;5022281;28;20350;-93
2023/08/08 01:34:15;;;;;;;;;;;15.90;99.90;;;;;;5022393;28;19916;-92
2023/08/08 01:37:19;;;;;;;;;;;15.90;99.90;;;;;;5022388;28;19909;-93
2023/08/08 01:39:58;;;;;;;;;;;;;;;;;;;;;
2023/08/08 01:42:41;;;;;;;;;;;15.90;99.90;;;;;;5041137;28;19931;-93
2023/08/08 01:45:13;;;;;;;;;;;15.90;99.90;;;;;;5022565;28;20354;-93
2023/08/08 01:47:52;;;;;;;;;;;;;;;;;;;;;
2023/08/08 01:50:41;;;;;;;;;;;15.90;99.90;;;;;;4978580;28;19914;-92
2023/08/08 01:53:07;;;;;;;;;;;15.90;99.90;;;;;;5017773;28;20381;-92
2023/08/08 01:55:35;;;;;;;;;;;15.90;99.90;;;;;;5021885;28;19913;-93
2023/08/08 01:58:10;;;;;;;;;;;15.90;99.90;;;;;;5022440;28;20036;-92
2023/08/08 02:00:47;;;;;;;;;;;15.90;99.90;;;;;;5021577;28;19909;-93
2023/08/08 02:03:18;;;;;;;;;;;15.90;99.90;;;;;;5006406;28;19920;-93
2023/08/08 02:05:53;;;;;;;;;;;15.80;99.90;;;;;;5021051;28;20012;-93
2023/08/08 02:08:36;;;;;;;;;;;15.80;99.90;;;;;;5020507;28;19958;-93
2023/08/08 02:11:21;;;;;;;;;;;15.80;99.90;;;;;;5033932;28;19909;-92
2023/08/08 02:13:57;;;;;;;;;;;15.70;99.90;;;;;;5005426;28;20007;-92
2023/08/08 02:16:35;;;;;;;;;;;15.70;99.90;;;;;;5005953;28;19917;-93
2023/08/08 02:19:06;;;;;;;;;;;15.70;99.90;;;;;;5006366;28;20012;-92
2023/08/08 02:21:32;;;;;;;;;;;15.80;99.90;;;;;;5019404;28;20390;-92
2023/08/08 02:24:16;;;;;;;;;;;15.70;99.90;;;;;;5021081;28;19944;-93
2023/08/08 02:26:44;;;;;;;;;;;15.70;99.90;;;;;;5037034;28;19928;-92
2023/08/08 02:29:15;;;;;;;;;;;15.70;99.90;;;;;;5021047;28;20012;-92
2023/08/08 02:31:41;;;;;;;;;;;15.70;99.90;;;;;;5004889;28;20316;-93
2023/08/08 02:34:13;;;;;;;;;;;15.70;99.90;;;;;;5020921;28;20003;-93
2023/08/08 02:36:45;;;;;;;;;;;15.70;99.90;;;;;;5021387;28;19909;-93
2023/08/08 02:39:13;;;;;;;;;;;15.70;99.90;;;;;;5021972;28;20347;-92
2023/08/08 02:41:43;;;;;;;;;;;15.70;99.90;;;;;;5020080;28;19909;-92
2023/08/08 02:50:12;;;;;;;;;;;15.60;99.90;;;;;;4977733;28;19995;-92
2023/08/08 02:55:55;;;;;;;;;;;15.60;99.90;;;;;;5038237;28;20293;-93
2023/08/08 02:58:49;;;;;;;;;;;15.60;99.90;;;;;;5001430;28;20370;-93
2023/08/08 03:01:28;;;;;;;;;;;15.60;99.90;;;;;;5016826;28;19936;-92
2023/08/08 03:04:00;;;;;;;;;;;15.60;99.90;;;;;;5019241;28;19953;-93
2023/08/08 03:12:37;;;;;;;;;;;15.60;99.90;;;;;;5023711;28;20443;-92
2023/08/08 03:15:14;;;;;;;;;;;15.50;99.90;;;;;;5004884;28;20008;-92
2023/08/08 03:17:55;;;;;;;;;;;;;;;;;;;;;
2023/08/08 03:20:29;;;;;;;;;;;15.50;99.90;;;;;;5024679;28;20339;-91
2023/08/08 03:26:25;;;;;;;;;;;;;;;;;;;;;
2023/08/08 03:29:12;;;;;;;;;;;;;;;;;;;;;
2023/08/08 03:31:38;;;;;;;;;;;15.50;99.90;;;;;;5021821;28;19913;-91
2023/08/08 03:34:22;;;;;;;;;;;15.50;99.90;;;;;;5003620;28;19945;-91
2023/08/08 03:36:58;;;;;;;;;;;15.50;99.90;;;;;;5010126;28;20012;-92
2023/08/08 03:39:37;;;;;;;;;;;;;;;;;;;;;
2023/08/08 04:06:40;;;;;;;;;;;15.40;99.90;;;;;;4937431;29;19937;-91
2023/08/08 04:09:14;;;;;;;;;;;15.50;99.90;;;;;;4923379;29;19919;-92
2023/08/08 04:27:55;;;;;;;;;;;;;;;;;;;;;
2023/08/08 04:33:20;;;;;;;;;;;15.50;99.90;;;;;;4887003;29;19927;-90
2023/08/08 04:36:00;;;;;;;;;;;15.50;99.90;;;;;;4898020;29;19917;-91
2023/08/08 04:39:14;;;;;;;;;;;;;;;;;;;;;
2023/08/08 04:41:29;;;;;;;;;;;15.40;99.90;;;;;;4917310;29;19915;-92
2023/08/08 04:43:55;;;;;;;;;;;15.40;99.90;;;;;;5001225;28;19909;-91
2023/08/08 04:46:23;;;;;;;;;;;15.30;99.90;;;;;;5018254;28;19917;-91
2023/08/08 04:48:52;;;;;;;;;;;15.30;99.90;;;;;;5002437;28;19913;-93
2023/08/08 04:51:22;;;;;;;;;;;15.30;99.90;;;;;;5040813;28;19913;-92
2023/08/08 04:53:50;;;;;;;;;;;15.30;99.90;;;;;;5004238;28;19913;-92
2023/08/08 04:56:16;;;;;;;;;;;15.30;99.90;;;;;;5003879;28;19967;-92
2023/08/08 04:58:53;;;;;;;;;;;15.30;99.90;;;;;;5016219;28;19909;-92
2023/08/08 05:01:30;;;;;;;;;;;15.30;99.90;;;;;;5020308;28;19909;-92
2023/08/08 05:04:07;;;;;;;;;;;15.30;99.90;;;;;;5006919;28;19914;-91
2023/08/08 05:06:51;;;;;;;;;;;15.30;99.90;;;;;;5019229;28;19913;-92
2023/08/08 05:09:27;;;;;;;;;;;15.30;99.90;;;;;;5005909;28;19913;-92
2023/08/08 05:12:00;;;;;;;;;;;15.40;99.90;;;;;;5018594;28;19909;-92
2023/08/08 05:14:31;;;;;;;;;;;15.40;99.90;;;;;;5018202;28;19943;-94
2023/08/08 05:23:13;;;;;;;;;;;15.40;99.90;;;;;;4996244;28;19948;-92
2023/08/08 05:28:47;;;;;;;;;;;15.40;99.90;;;;;;5013894;28;20397;-93
2023/08/08 05:31:30;;;;;;;;;;;;;;;;;;;;;
2023/08/08 05:34:07;;;;;;;;;;;15.40;99.90;;;;;;5021763;28;19988;-93
2023/08/08 05:36:56;;;;;;;;;;;15.40;99.90;;;;;;5003578;28;20337;-94
2023/08/08 05:39:24;;;;;;;;;;;15.40;99.90;;;;;;5022013;28;19913;-93
2023/08/08 05:41:52;;;;;;;;;;;15.40;99.90;;;;;;5018521;28;19909;-93
2023/08/08 05:44:50;;;;;;;;;;;15.50;99.90;;;;;;5005984;28;19980;-94
2023/08/08 05:47:19;;;;;;;;;;;15.50;99.90;;;;;;4998725;28;20020;-92
2023/08/08 05:49:49;;;;;;;;;;;15.50;99.90;;;;;;5018995;28;19910;-93
2023/08/08 05:52:47;;;;;;;;;;;15.50;99.90;;;;;;5005103;28;20012;-92
2023/08/08 05:58:16;;;;;;;;;;;15.50;99.90;;;;;;5035798;28;19916;-93
2023/08/08 06:00:54;;;;;;;;;;;15.50;99.90;;;;;;5020128;28;19909;-94
2023/08/08 06:03:20;;;;;;;;;;;15.60;99.90;;;;;;5020257;28;19916;-92
2023/08/08 06:05:56;;;;;;;;;;;15.60;99.90;;;;;;5018733;28;20354;-93
2023/08/08 06:08:57;;;;;;;;;;;15.60;99.90;;;;;;5005709;28;19913;-90
2023/08/08 06:11:23;;;;;;;;;;;15.60;99.90;;;;;;5017985;28;19909;-92
2023/08/08 06:17:03;;;;;;;;;;;15.70;99.90;;;;;;5043487;28;19916;-93
2023/08/08 06:19:47;;;;;;;;;;;;;;;;;;;;;
2023/08/08 06:22:22;;;;;;;;;;;15.70;99.90;;;;;;5033231;28;20378;-92
2023/08/08 06:24:51;;;;;;;;;;;15.70;99.90;;;;;;5031165;28;19975;-93
2023/08/08 06:27:26;;;;;;;;;;;15.70;99.90;;;;;;5024677;28;19995;-92
2023/08/08 06:29:58;;;;;;;;;;;15.80;99.90;;;;;;5021701;28;19921;-93
2023/08/08 06:35:20;;;;;;;;;;;15.80;99.90;;;;;;5042170;28;19909;-93
2023/08/08 06:37:45;;;;;;;;;;;15.80;99.90;;;;;;5021638;28;19909;-94
2023/08/08 06:43:16;;;;;;;;;;;15.90;99.90;;;;;;5041182;28;19916;-94
2023/08/08 06:46:01;;;;;;;;;;;15.90;99.90;;;;;;5029732;28;19917;-94
2023/08/08 06:51:42;;;;;;;;;;;16.00;99.90;;;;;;5043005;28;19916;-94
2023/08/08 06:54:17;;;;;;;;;;;16.10;99.90;;;;;;5041000;28;19910;-93
2023/08/08 06:56:54;;;;;;;;;;;16.10;99.90;;;;;;5040245;28;20392;-94
2023/08/08 06:59:39;;;;;;;;;;;16.10;99.90;;;;;;5051148;28;19909;-92
2023/08/08 07:02:47;;;;;;;;;;;;;;;;;;;;;
2023/08/08 07:08:39;;;;;;;;;;;16.20;99.90;;;;;;5048150;28;19920;-93
2023/08/08 07:11:21;;;;;;;;;;;16.30;99.90;;;;;;5064376;28;19957;-94
2023/08/08 07:13:59;;;;;;;;;;;16.30;99.90;;;;;;5036775;28;19909;-94
2023/08/08 07:16:37;;;;;;;;;;;;;;;;;;;;;
2023/08/08 07:26:35;;;;;;;;;;;16.60;99.90;;;;;;4977857;28;20298;-94
2023/08/08 07:28:57;;;;;;;;;;;16.60;99.90;;;;;;5008442;28;19948;-93
2023/08/08 07:31:29;;;;;;;;;;;16.60;99.90;;;;;;5019170;28;19978;-93
2023/08/08 07:34:16;;;;;;;;;;;16.70;99.90;;;;;;5020170;28;19917;-93
2023/08/08 07:36:47;;;;;;;;;;;16.70;99.90;;;;;;5037906;28;19920;-93
2023/08/08 07:39:13;;;;;;;;;;;16.80;99.90;;;;;;5036584;28;19910;-93
2023/08/08 07:41:55;;;;;;;;;;;16.80;99.90;;;;;;5036719;28;20131;-93
2023/08/08 07:44:31;;;;;;;;;;;;;;;;;;;;;
2023/08/08 07:50:21;;;;;;;;;;;16.90;99.90;;;;;;4976180;28;19960;-93
2023/08/08 07:52:47;;;;;;;;;;;16.90;99.90;;;;;;5008666;28;20372;-93
2023/08/08 07:55:20;;;;;;;;;;;17.00;99.90;;;;;;5000052;28;19996;-92
2023/08/08 07:57:45;;;;;;;;;;;17.00;99.90;;;;;;4999095;28;20425;-92
2023/08/08 08:09:46;;;;;;;;;;;17.20;99.90;;;;;;4976521;28;19917;-93
2023/08/08 08:12:11;;;;;;;;;;;17.20;99.90;;;;;;4990364;28;19910;-93
2023/08/08 08:15:39;;;;;;;;;;;;;;;;;;;;;
2023/08/08 08:18:16;;;;;;;;;;;17.30;99.90;;;;;;4975996;28;20025;-92
2023/08/08 08:27:37;;;;;;;;;;;17.50;99.90;;;;;;4934117;29;19929;-94
2023/08/08 08:33:37;;;;;;;;;;;17.50;99.90;;;;;;4972460;28;19921;-92
2023/08/08 08:36:04;;;;;;;;;;;17.60;99.90;;;;;;4963992;28;20366;-91
2023/08/08 08:53:56;;;;;;;;;;;17.90;99.90;;;;;;5008429;28;20473;-92
2023/08/08 08:57:16;;;;;;;;;;;;;;;;;;;;;
2023/08/08 09:02:40;;;;;;;;;;;18.00;99.90;;;;;;4956616;28;19929;-91
2023/08/08 09:11:31;;;;;;;;;;;18.10;99.90;;;;;;5029831;28;19928;-91
2023/08/08 09:14:00;;;;;;;;;;;18.10;99.90;;;;;;4999933;28;19914;-93
2023/08/08 09:16:25;;;;;;;;;;;18.20;99.90;;;;;;5000896;28;20102;-93
2023/08/08 09:18:54;;;;;;;;;;;18.20;99.90;;;;;;4998827;28;20262;-93
2023/08/08 09:21:19;;;;;;;;;;;18.20;99.90;;;;;;4997705;28;20005;-92
2023/08/08 09:23:45;;;;;;;;;;;18.20;99.90;;;;;;4999068;28;20301;-92
2023/08/08 09:26:13;;;;;;;;;;;18.20;99.90;;;;;;4997721;28;19966;-92
2023/08/08 09:28:39;;;;;;;;;;;18.20;99.90;;;;;;4998119;28;19909;-91
2023/08/08 09:31:05;;;;;;;;;;;18.20;99.90;;;;;;4997717;28;20393;-91
2023/08/08 09:33:34;;;;;;;;;;;18.20;99.90;;;;;;4999312;28;19918;-90
2023/08/08 09:35:59;;;;;;;;;;;18.20;99.90;;;;;;4998667;28;19914;-92
2023/08/08 09:44:51;;;;;;;;;;;18.40;99.90;;;;;;4994297;28;19973;-91
2023/08/08 10:30:44;;;;;;;;;;;19.10;99.90;;;;;;4960731;29;19965;-92
2023/08/08 10:33:23;;;;;;;;;;;19.10;99.90;;;;;;5003026;28;20281;-92
2023/08/08 10:35:55;;;;;;;;;;;19.20;99.90;;;;;;5023432;28;19909;-94
2023/08/08 10:38:22;;;;;;;;;;;19.10;99.90;;;;;;5003817;28;20404;-94
2023/08/08 10:40:47;;;;;;;;;;;19.20;99.90;;;;;;5003697;28;19959;-95
2023/08/08 10:43:13;;;;;;;;;;;19.20;99.90;;;;;;5005007;28;19949;-94
2023/08/08 10:45:42;;;;;;;;;;;19.20;99.90;;;;;;5005392;28;19913;-93
2023/08/08 10:48:11;;;;;;;;;;;19.20;99.90;;;;;;5002965;28;19917;-94
2023/08/08 10:50:38;;;;;;;;;;;19.20;99.90;;;;;;5003326;28;19910;-92
2023/08/08 10:53:04;;;;;;;;;;;19.10;99.90;;;;;;5003736;28;20012;-91
2023/08/08 10:55:36;;;;;;;;;;;19.10;99.90;;;;;;5003709;28;19948;-92
2023/08/08 10:58:08;;;;;;;;;;;19.10;99.90;;;;;;5002794;28;19967;-93
2023/08/08 11:00:45;;;;;;;;;;;19.10;99.90;;;;;;5002884;28;19909;-91
2023/08/08 11:09:23;;;;;;;;;;;19.20;99.90;;;;;;4979939;28;20311;-93
2023/08/08 11:11:52;;;;;;;;;;;19.30;99.90;;;;;;5006983;28;19931;-92
2023/08/08 11:14:38;;;;;;;;;;;19.40;99.90;;;;;;5020646;28;19913;-91
2023/08/08 11:17:05;;;;;;;;;;;19.40;99.90;;;;;;5037341;28;19914;-92
2023/08/08 11:19:51;;;;;;;;;;;19.50;99.90;;;;;;5020776;28;19909;-93
2023/08/08 11:25:19;;;;;;;;;;;19.70;99.90;;;;;;4978283;28;20405;-92
2023/08/08 11:28:03;;;;;;;;;;;19.80;99.90;;;;;;5019337;28;20016;-92
2023/08/08 11:30:37;;;;;;;;;;;19.90;99.90;;;;;;5020544;28;19916;-93
2023/08/08 11:33:03;;;;;;;;;;;19.90;99.90;;;;;;5019213;28;19922;-94
2023/08/08 11:35:29;;;;;;;;;;;19.90;99.90;;;;;;5019821;28;19913;-93
2023/08/08 11:37:59;;;;;;;;;;;19.90;99.90;;;;;;5020194;28;19909;-93
2023/08/08 11:40:45;;;;;;;;;;;19.90;99.90;;;;;;5019177;28;19909;-95
2023/08/08 11:43:14;;;;;;;;;;;19.90;99.90;;;;;;5054022;28;19913;-95
2023/08/08 11:48:43;;;;;;;;;;;19.80;99.90;;;;;;5038017;28;20003;-92
2023/08/08 11:51:09;;;;;;;;;;;19.80;99.90;;;;;;5037068;28;19941;-92
2023/08/08 11:53:41;;;;;;;;;;;19.80;99.90;;;;;;5021469;28;19909;-92
2023/08/08 11:56:06;;;;;;;;;;;19.90;99.90;;;;;;5020948;28;20369;-92
2023/08/08 11:58:56;;;;;;;;;;;19.90;99.90;;;;;;5023779;28;19996;-93
2023/08/08 12:01:38;;;;;;;;;;;;;;;;;;;;;
2023/08/08 12:04:04;;;;;;;;;;;20.00;99.90;;;;;;5037905;28;20004;-94
2023/08/08 12:06:30;;;;;;;;;;;20.10;99.90;;;;;;5022157;28;19920;-94
2023/08/08 12:08:56;;;;;;;;;;;20.10;99.90;;;;;;5024207;28;19909;-93
2023/08/08 12:11:24;;;;;;;;;;;20.20;99.90;;;;;;5035963;28;19920;-94
2023/08/08 12:13:50;;;;;;;;;;;20.30;99.90;;;;;;5019003;28;20339;-93
2023/08/08 12:16:45;;;;;;;;;;;20.40;99.90;;;;;;5018633;28;19916;-92
2023/08/08 12:28:34;;;;;;;;;;;20.50;99.90;;;;;;4998045;28;19980;-91
2023/08/08 12:37:50;;;;;;;;;;;20.40;99.90;;;;;;4931681;29;19994;-92
2023/08/08 12:40:15;;;;;;;;;;;20.30;99.90;;;;;;4921975;29;19961;-91
2023/08/08 12:42:41;;;;;;;;;;;20.30;99.90;;;;;;4999349;28;20442;-94
2023/08/08 12:48:13;;;;;;;;;;;20.30;99.90;;;;;;5044431;28;19967;-93
2023/08/08 12:50:50;;;;;;;;;;;;;;;;;;;;;
2023/08/08 12:56:50;;;;;;;;;;;20.40;99.90;;;;;;5018981;28;19917;-93
2023/08/08 12:59:21;;;;;;;;;;;20.40;99.90;;;;;;5004244;28;20350;-92
2023/08/08 13:02:10;;;;;;;;;;;20.40;99.90;;;;;;5037588;28;19963;-93
2023/08/08 13:10:42;;;;;;;;;;;20.40;99.90;;;;;;4956126;29;19961;-91
2023/08/08 13:13:10;;;;;;;;;;;20.50;99.90;;;;;;4942431;29;19922;-91
2023/08/08 13:22:02;;;;;;;;;;;20.60;99.90;;;;;;4927192;28;19926;-92
2023/08/08 13:24:28;;;;;;;;;;;20.60;99.90;;;;;;4890300;29;19915;-92
2023/08/08 13:26:54;;;;;;;;;;;20.60;99.90;;;;;;4913657;29;19972;-93
2023/08/08 13:30:03;;;;;;;;;;;20.60;99.90;;;;;;4982110;28;19973;-92
2023/08/08 13:39:13;;;;;;;;;;;20.50;99.90;;;;;;5038392;28;19924;-92
2023/08/08 13:41:48;;;;;;;;;;;20.50;99.90;;;;;;5045011;28;19917;-92
2023/08/08 13:44:22;;;;;;;;;;;20.50;99.90;;;;;;5025723;28;19910;-93
2023/08/08 13:46:55;;;;;;;;;;;20.60;99.90;;;;;;5040186;28;19917;-93
2023/08/08 13:49:38;;;;;;;;;;;20.60;99.90;;;;;;5042354;28;19909;-95
2023/08/08 13:52:04;;;;;;;;;;;20.60;99.40;;;;;;5047268;28;20000;-95
2023/08/08 13:54:29;;;;;;;;;;;20.60;98.90;;;;;;5048156;28;19937;-96
2023/08/08 14:03:20;;;;;;;;;;;20.50;99.80;;;;;;4959472;29;19933;-91
2023/08/08 14:05:58;;;;;;;;;;;20.50;99.90;;;;;;5001434;28;19909;-92
2023/08/08 14:08:35;;;;;;;;;;;20.40;99.60;;;;;;5034164;28;19908;-93
2023/08/08 14:14:11;;;;;;;;;;;20.30;99.20;;;;;;5058850;28;19915;-93
2023/08/08 14:16:45;;;;;;;;;;;20.30;99.70;;;;;;5024218;28;20409;-93
2023/08/08 14:19:16;;;;;;;;;;;20.30;99.40;;;;;;5024230;28;19921;-93
2023/08/08 14:22:05;;;;;;;;;;;20.30;99.90;;;;;;5040893;28;19952;-92
2023/08/08 14:24:31;;;;;;;;;;;20.30;99.80;;;;;;5022092;28;19966;-93
2023/08/08 14:30:03;;;;;;;;;;;20.30;99.80;;;;;;5058060;28;20411;-93
2023/08/08 14:38:24;;;;;;;;;;;20.20;98.70;;;;;;5058714;28;19951;-92
2023/08/08 14:40:52;;;;;;;;;;;20.20;99.30;;;;;;5040789;28;19912;-94
2023/08/08 14:46:26;;;;;;;;;;;20.20;99.80;;;;;;5058672;28;20372;-93
2023/08/08 14:48:52;;;;;;;;;;;20.20;99.70;;;;;;5040744;28;19908;-94
2023/08/08 14:51:55;;;;;;;;;;;;;;;;;;;;;
2023/08/08 14:54:42;;;;;;;;;;;20.30;99.60;;;;;;5058437;28;19917;-94
2023/08/08 14:57:30;;;;;;;;;;;20.30;99.10;;;;;;5046552;28;19923;-93
2023/08/08 15:03:41;;;;;;;;;;;20.30;99.50;;;;;;4964742;29;19942;-91
2023/08/08 15:06:25;;;;;;;;;;;20.40;99.90;;;;;;4975131;28;19914;-92
2023/08/08 15:12:09;;;;;;;;;;;20.50;99.90;;;;;;4996300;28;19941;-91
2023/08/08 15:14:51;;;;;;;;;;;;;;;;;;;;;
2023/08/08 15:23:43;;;;;;;;;;;20.40;98.90;;;;;;4997394;28;19937;-91
2023/08/08 15:29:35;;;;;;;;;;;20.40;99.00;;;;;;4962439;29;19911;-90
2023/08/08 15:32:07;;;;;;;;;;;20.40;99.70;;;;;;4982452;28;19914;-91
2023/08/08 15:34:32;;;;;;;;;;;20.30;98.90;;;;;;4983134;28;19910;-92
2023/08/08 15:37:08;;;;;;;;;;;;;;;;;;;;;
2023/08/08 15:42:33;;;;;;;;;;;20.30;99.20;;;;;;4996249;28;19974;-93
2023/08/08 15:45:01;;;;;;;;;;;20.30;99.30;;;;;;4980497;28;19914;-94
2023/08/08 16:06:36;;;;;;;;;;;20.30;98.90;;;;;;4882451;29;20015;-95
2023/08/08 16:24:52;;;;;;;;;;;20.30;99.40;;;;;;4881562;29;19968;-93
2023/08/08 16:27:41;;;;;;;;;;;20.30;98.80;;;;;;4875205;29;20040;-93
2023/08/08 16:30:10;;;;;;;;;;;20.20;99.20;;;;;;4897651;28;19911;-93
2023/08/08 16:32:45;;;;;;;;;;;20.10;98.80;;;;;;4990133;28;19915;-93
2023/08/08 16:35:10;;;;;;;;;;;20.20;99.20;;;;;;5010655;28;20008;-93
2023/08/08 16:37:39;;;;;;;;;;;20.10;99.10;;;;;;5027148;28;19952;-93
2023/08/08 16:40:11;;;;;;;;;;;20.10;99.60;;;;;;5025423;28;19953;-94
2023/08/08 16:42:40;;;;;;;;;;;20.10;99.50;;;;;;5024227;28;19909;-93
2023/08/08 16:45:08;;;;;;;;;;;20.10;99.70;;;;;;5019466;28;19996;-94
2023/08/08 16:50:44;;;;;;;;;;;20.10;99.90;;;;;;5035750;28;19960;-96
2023/08/08 16:53:10;;;;;;;;;;;20.00;99.00;;;;;;5018357;28;19909;-93
2023/08/08 16:55:41;;;;;;;;;;;19.90;99.00;;;;;;5018445;28;19916;-93
2023/08/08 16:58:07;;;;;;;;;;;19.90;99.00;;;;;;5016708;28;19909;-93
2023/08/08 17:00:51;;;;;;;;;;;19.80;99.00;;;;;;5017293;28;19916;-93
2023/08/08 17:03:19;;;;;;;;;;;19.80;98.70;;;;;;5018815;28;19909;-93
2023/08/08 17:05:46;;;;;;;;;;;19.70;99.00;;;;;;5018310;28;19909;-92
2023/08/08 17:08:14;;;;;;;;;;;19.70;99.40;;;;;;5018279;28;19960;-93
2023/08/08 17:10:42;;;;;;;;;;;19.60;99.70;;;;;;5001852;28;20278;-94
2023/08/08 17:13:15;;;;;;;;;;;19.60;99.90;;;;;;5018031;28;19959;-93
2023/08/08 17:16:20;;;;;;;;;;;19.60;99.90;;;;;;5025440;28;19910;-95
2023/08/08 17:19:09;;;;;;;;;;;;;;;;;;;;;
2023/08/08 17:30:49;;;;;;;;;;;19.30;99.90;;;;;;4953876;29;19985;-94
2023/08/08 17:33:28;;;;;;;;;;;;;;;;;;;;;
2023/08/08 17:36:01;;;;;;;;;;;19.30;99.90;;;;;;4947608;29;19966;-93
2023/08/08 17:44:43;;;;;;;;;;;19.20;99.90;;;;;;4978672;28;20333;-92
2023/08/08 17:47:12;;;;;;;;;;;19.10;99.90;;;;;;5004094;28;20328;-95
2023/08/08 17:49:38;;;;;;;;;;;19.00;99.90;;;;;;4992883;28;19949;-93
2023/08/08 17:55:26;;;;;;;;;;;19.00;99.90;;;;;;5007284;28;20243;-92
2023/08/08 17:57:54;;;;;;;;;;;19.10;99.90;;;;;;5000315;28;19913;-93
2023/08/08 18:00:32;;;;;;;;;;;19.10;99.90;;;;;;5013724;28;19910;-92
2023/08/08 18:03:06;;;;;;;;;;;19.10;99.90;;;;;;4997177;28;19920;-92
2023/08/08 18:18:09;;;;;;;;;;;19.00;99.90;;;;;;4997977;28;19952;-93
2023/08/08 18:20:42;;;;;;;;;;;19.00;99.90;;;;;;4980973;28;19921;-94
2023/08/08 18:23:08;;;;;;;;;;;19.00;99.90;;;;;;4989519;28;19915;-92
2023/08/08 18:25:38;;;;;;;;;;;19.00;99.90;;;;;;5021575;28;19909;-95
2023/08/08 18:31:13;;;;;;;;;;;18.90;99.90;;;;;;5021704;28;20012;-93
2023/08/08 18:33:49;;;;;;;;;;;18.90;99.90;;;;;;5004759;28;20278;-94
2023/08/08 18:36:15;;;;;;;;;;;18.80;99.90;;;;;;5020829;28;19910;-93
2023/08/08 18:41:58;;;;;;;;;;;18.70;99.90;;;;;;4987542;28;19944;-95
2023/08/08 18:47:29;;;;;;;;;;;18.60;99.90;;;;;;5043978;28;19929;-93
2023/08/08 18:56:23;;;;;;;;;;;18.50;99.90;;;;;;5010268;28;19914;-94
2023/08/08 18:58:47;;;;;;;;;;;18.40;99.90;;;;;;4965591;28;19920;-93
2023/08/08 19:02:06;;;;;;;;;;;18.30;99.90;;;;;;5001124;28;19909;-94
2023/08/08 19:04:27;;;;;;;;;;;18.30;99.90;;;;;;5016043;28;19909;-93
2023/08/08 19:10:01;;;;;;;;;;;18.20;99.90;;;;;;5018297;28;19901;-95
2023/08/08 19:21:42;;;;;;;;;;;18.00;99.90;;;;;;5026192;28;19921;-96
2023/08/08 19:27:22;;;;;;;;;;;17.80;99.90;;;;;;5021933;28;19955;-96
2023/08/08 19:33:22;;;;;;;;;;;;;;;;;;;;;
2023/08/08 19:49:09;;;;;;;;;;;17.20;99.90;;;;;;5002626;28;19972;-96
2023/08/08 19:51:37;;;;;;;;;;;17.10;99.90;;;;;;4985409;28;20366;-96
2023/08/08 19:57:14;;;;;;;;;;;17.00;99.90;;;;;;5003322;28;19964;-96
2023/08/08 20:02:42;;;;;;;;;;;17.00;99.90;;;;;;4999446;28;19994;-96
2023/08/08 20:08:11;;;;;;;;;;;17.00;99.90;;;;;;5015639;28;20326;-94
2023/08/08 20:13:50;;;;;;;;;;;16.90;99.90;;;;;;5036933;28;19916;-95
2023/08/08 20:19:25;;;;;;;;;;;17.00;99.90;;;;;;5036570;28;19959;-93
2023/08/08 20:25:00;;;;;;;;;;;17.00;99.90;;;;;;5037060;28;20269;-94
2023/08/08 20:30:29;;;;;;;;;;;17.00;99.90;;;;;;5038725;28;19917;-93
2023/08/08 20:32:54;;;;;;;;;;;17.00;99.90;;;;;;5003737;28;19913;-93
2023/08/08 20:35:20;;;;;;;;;;;17.00;99.90;;;;;;5021075;28;19932;-92
2023/08/08 20:37:46;;;;;;;;;;;17.00;99.90;;;;;;5026197;28;19916;-95
2023/08/08 20:40:11;;;;;;;;;;;17.00;99.90;;;;;;5009921;28;19924;-95
2023/08/08 20:42:40;;;;;;;;;;;17.00;99.90;;;;;;5025673;28;19916;-92
2023/08/08 20:45:06;;;;;;;;;;;16.90;99.90;;;;;;5018573;28;19917;-93
2023/08/08 20:47:32;;;;;;;;;;;16.90;99.90;;;;;;5018790;28;19943;-94
2023/08/08 20:50:00;;;;;;;;;;;16.90;99.90;;;;;;5018779;28;19909;-93
2023/08/08 20:52:26;;;;;;;;;;;16.80;99.90;;;;;;5019231;28;19949;-96
2023/08/08 20:54:51;;;;;;;;;;;16.80;99.90;;;;;;5018674;28;19967;-95
2023/08/08 20:57:27;;;;;;;;;;;16.80;99.90;;;;;;5018209;28;19910;-94
2023/08/08 20:59:53;;;;;;;;;;;16.80;99.90;;;;;;5018833;28;19959;-95
2023/08/08 21:02:28;;;;;;;;;;;16.80;99.90;;;;;;5001788;28;20309;-94
2023/08/08 21:05:02;;;;;;;;;;;16.80;99.90;;;;;;5018080;28;20363;-94
2023/08/08 21:07:43;;;;;;;;;;;16.80;99.90;;;;;;5017755;28;20297;-94
2023/08/08 21:10:12;;;;;;;;;;;16.70;99.90;;;;;;5018205;28;19909;-94
2023/08/08 21:12:43;;;;;;;;;;;16.70;99.90;;;;;;5018691;28;19952;-95
2023/08/08 21:15:10;;;;;;;;;;;16.70;99.90;;;;;;5018682;28;19909;-96
2023/08/08 21:23:52;;;;;;;;;;;16.80;99.90;;;;;;5006852;28;19955;-94
2023/08/08 21:26:20;;;;;;;;;;;16.80;99.90;;;;;;5019863;28;20007;-92
2023/08/08 21:28:52;;;;;;;;;;;16.80;99.90;;;;;;5018084;28;20374;-93
2023/08/08 21:46:32;;;;;;;;;;;16.80;99.90;;;;;;5047505;28;19927;-93
2023/08/08 21:52:33;;;;;;;;;;;;;;;;;;;;;
2023/08/08 21:55:19;;;;;;;;;;;16.80;99.90;;;;;;5054357;28;19944;-92
2023/08/08 21:57:45;;;;;;;;;;;16.80;99.90;;;;;;4957436;29;19910;-93
2023/08/08 22:00:14;;;;;;;;;;;16.80;99.90;;;;;;5015585;28;19920;-94
2023/08/08 22:05:46;;;;;;;;;;;16.70;99.90;;;;;;5049166;28;20274;-94
2023/08/08 22:08:14;;;;;;;;;;;16.70;99.90;;;;;;5033510;28;19948;-94
2023/08/08 22:10:46;;;;;;;;;;;16.70;99.90;;;;;;5033683;28;19909;-95
2023/08/08 22:13:12;;;;;;;;;;;16.70;99.90;;;;;;5032715;28;19959;-94
2023/08/08 22:15:58;;;;;;;;;;;16.70;99.90;;;;;;5013446;28;19917;-93
2023/08/08 22:18:43;;;;;;;;;;;16.70;99.90;;;;;;5005203;28;19913;-94
2023/08/08 22:21:19;;;;;;;;;;;16.60;99.90;;;;;;5020690;28;19909;-93
2023/08/08 22:33:57;;;;;;;;;;;;;;;;;;;;;
2023/08/08 22:40:09;;;;;;;;;;;16.60;99.90;;;;;;5038986;28;19916;-92
2023/08/08 23:13:24;;;;;;;;;;;16.50;99.90;;;;;;4826814;29;19924;-93
2023/08/08 23:37:34;;;;;;;;;;;16.20;99.90;;;;;;4798484;29;19936;-93
2023/08/08 23:43:18;;;;;;;;;;;16.20;99.90;;;;;;4826911;29;19961;-95
2023/08/08 23:46:01;;;;;;;;;;;16.20;99.90;;;;;;4812930;29;19923;-95
2023/08/08 23:52:17;;;;;;;;;;;16.10;99.90;;;;;;4863029;29;20033;-95
2023/08/08 23:54:51;;;;;;;;;;;16.10;99.90;;;;;;4849124;29;19923;-94
